Machrihanish Raf, United Kingdom

8:39 PM GMT on February 22, 2017 (GMT +0000)
rathlin island | | Change Station

Elev 0 ft 55.29 °N, 6.19 °W | Updated 39 minutes ago

Rain
Rain
45.1 °F
Feels Like 42 °F
N
5.0
Wind Variable Wind from SSW
Gusts 12.0 mph

Today
High -- | Low -- °F
--% Chance of Precip.
Yesterday
High -- | Low -- °F
Precip. -- in
Pressure 29.53 in
Visibility 6.2 miles
Clouds Few 3000 ft
Windchill 42 °F
Dew Point 45 °F
Humidity 98%
Rainfall 0.05 in
Snow Depth Not available.
7:29 AM 5:43 PM
Waning Crescent, 15% visible
METAR EGPK 222020Z 25007KT 9999 FEW030 07/03 Q1000
Pressure 29.53 in
Visibility 6.2 miles
Clouds Few 3000 ft
Windchill 42 °F
Dew Point 45 °F
Humidity 98%
Rainfall 0.05 in
Snow Depth Not available.
7:29 AM 5:43 PM
Waning Crescent, 15% visible
METAR EGPK 222020Z 25007KT 9999 FEW030 07/03 Q1000

Get Your Daily Forecast Email!

Thanks for signing up!

Be on the lookout for a verification email in your inbox.

You'll start receiving the daily forecast at 8 AM.

×

10-Day Weather Forecast

×

Almanac

Astronomy

Feb. 22, 2017 Rise Set
Actual Time
Civil Twilight
Nautical Twilight
Astronomical Twilight
Moon
Length of Visible Light
Length of Day
Tomorrow will be .
, % of the Moon is Illuminated

Today's Extremes

Country Highs Country Lows

Community

WunderPhotos

Upload Photos

1,962,540 photos uploaded!

WunderBlog® & News

Nearby

Air Quality

  Air Quality AQ Index Pollutant
Not available.

Snow Depth

Station Depth Elevation

Earthquake Activity

City Distance Mag. Time & Date
Minimum magnitude displayed is 2.5.

Coastal Water Temperatures

Place Temperature

Stations

Nearby Weather Stations

Station Location Temp. Windchill Dew Point Humidity Wind Precip. Elev Updated Type